Time;durP1;ratioP1;P1;durP2;ratioP2;P2;SDS_P1;SDS_P2;PMS_P1;PMS_P2;Temp;Humidity;BMP_temperature;BMP_pressure;BME280_temperature;BME280_humidity;BME280_pressure;Samples;Min_cycle;Max_cycle;Signal;HPM_P1;HPM_P2
2023/09/17 00:02:01;;;;;;;8.18;6.85;;;16.00;99.90;;;;;;5022496;27;20345;-71
2023/09/17 00:04:50;;;;;;;8.85;6.53;;;16.00;99.90;;;;;;5028056;27;20333;-70
2023/09/17 00:07:41;;;;;;;8.20;6.53;;;16.00;99.90;;;;;;5014488;27;20222;-71
2023/09/17 00:10:31;;;;;;;8.80;7.05;;;16.00;99.90;;;;;;5015946;27;20275;-72
2023/09/17 00:13:20;;;;;;;9.02;6.97;;;15.80;99.90;;;;;;5041792;27;20218;-71
2023/09/17 00:16:11;;;;;;;10.75;7.18;;;15.80;99.90;;;;;;5015219;28;20230;-72
2023/09/17 00:19:00;;;;;;;9.05;7.03;;;15.70;99.90;;;;;;5026930;27;20225;-72
2023/09/17 00:21:51;;;;;;;10.93;7.10;;;15.80;99.90;;;;;;5083269;27;20221;-71
2023/09/17 00:24:41;;;;;;;11.15;7.20;;;15.80;99.90;;;;;;5022182;28;20222;-71
2023/09/17 00:27:30;;;;;;;9.93;7.38;;;15.80;99.90;;;;;;5084138;27;20214;-70
2023/09/17 00:30:19;;;;;;;9.63;7.70;;;15.60;99.90;;;;;;5031427;27;20735;-73
2023/09/17 00:33:08;;;;;;;10.55;7.55;;;15.60;99.90;;;;;;5084593;27;20241;-71
2023/09/17 00:35:57;;;;;;;9.52;7.53;;;15.70;99.90;;;;;;5080548;27;20230;-71
2023/09/17 00:38:46;;;;;;;8.75;7.45;;;15.70;99.90;;;;;;5020812;27;20229;-71
2023/09/17 00:41:40;;;;;;;12.10;8.05;;;15.60;99.90;;;;;;5011931;28;20222;-69
2023/09/17 00:44:29;;;;;;;11.25;7.60;;;15.60;99.90;;;;;;5015172;28;20569;-71
2023/09/17 00:47:18;;;;;;;9.45;7.28;;;15.70;99.90;;;;;;5046093;27;20233;-70
2023/09/17 00:50:10;;;;;;;11.27;7.82;;;15.80;99.90;;;;;;5012094;28;20228;-68
2023/09/17 00:53:00;;;;;;;13.43;8.05;;;15.70;99.90;;;;;;5002027;27;20852;-69
2023/09/17 00:55:49;;;;;;;10.10;7.65;;;15.60;99.90;;;;;;5078104;27;20723;-68
2023/09/17 00:58:39;;;;;;;12.50;8.07;;;15.50;99.90;;;;;;5083143;27;20218;-68
2023/09/17 01:01:28;;;;;;;10.95;7.65;;;15.60;99.90;;;;;;4992641;28;20223;-69
2023/09/17 01:04:19;;;;;;;11.18;7.93;;;15.60;99.90;;;;;;5029983;27;20720;-68
2023/09/17 01:07:10;;;;;;;11.32;7.57;;;15.50;99.90;;;;;;5018216;27;20241;-70
2023/09/17 01:10:00;;;;;;;9.27;7.55;;;15.60;99.90;;;;;;5011740;27;20357;-70
2023/09/17 01:12:49;;;;;;;10.23;7.60;;;15.70;99.90;;;;;;5089095;27;20236;-70
2023/09/17 01:15:40;;;;;;;10.38;7.90;;;15.70;99.90;;;;;;5014182;28;20238;-70
2023/09/17 01:18:29;;;;;;;9.93;7.72;;;15.80;99.90;;;;;;5006247;28;20700;-69
2023/09/17 01:21:26;;;;;;;9.63;8.18;;;15.80;99.90;;;;;;5093476;27;20305;-71
2023/09/17 01:24:23;;;;;;;10.57;8.23;;;15.60;99.90;;;;;;5003351;28;20293;-70
2023/09/17 01:27:14;;;;;;;10.85;8.50;;;15.70;99.90;;;;;;5028406;28;20784;-71
2023/09/17 01:30:05;;;;;;;12.05;8.18;;;15.60;99.90;;;;;;5079503;27;20355;-70
2023/09/17 01:32:54;;;;;;;10.63;8.27;;;15.60;99.90;;;;;;5078786;27;20608;-72
2023/09/17 01:35:51;;;;;;;9.40;7.90;;;15.40;99.90;;;;;;5012157;28;20234;-71
2023/09/17 01:38:46;;;;;;;11.85;8.35;;;15.40;99.90;;;;;;5011448;27;20232;-71
2023/09/17 01:41:37;;;;;;;11.18;8.05;;;15.50;99.90;;;;;;5078321;27;20236;-70
2023/09/17 01:44:29;;;;;;;11.68;7.93;;;15.30;99.90;;;;;;5016081;27;20335;-71
2023/09/17 01:47:20;;;;;;;11.90;8.35;;;15.30;99.90;;;;;;5022812;27;20225;-70
2023/09/17 01:50:12;;;;;;;10.98;8.68;;;15.10;99.90;;;;;;5067007;27;20610;-70
2023/09/17 01:53:01;;;;;;;11.05;8.00;;;15.20;99.90;;;;;;5020378;27;20218;-71
2023/09/17 01:55:52;;;;;;;10.65;8.20;;;15.10;99.90;;;;;;5048133;27;20248;-71
2023/09/17 01:58:41;;;;;;;11.90;8.95;;;15.20;99.90;;;;;;5009553;28;20309;-70
2023/09/17 02:01:32;;;;;;;12.07;8.52;;;15.10;99.90;;;;;;5000446;28;21018;-72
2023/09/17 02:04:21;;;;;;;11.65;8.27;;;15.20;99.90;;;;;;4997590;28;20680;-71
2023/09/17 02:07:10;;;;;;;9.68;8.10;;;15.10;99.90;;;;;;5003008;27;20310;-70
2023/09/17 02:09:59;;;;;;;10.68;8.00;;;15.00;99.90;;;;;;5085318;27;20225;-72
2023/09/17 02:12:48;;;;;;;12.00;8.35;;;15.10;99.90;;;;;;5024686;27;20345;-70
2023/09/17 02:15:37;;;;;;;12.52;8.25;;;15.00;99.90;;;;;;5006390;27;20226;-70
2023/09/17 02:18:27;;;;;;;9.80;8.25;;;15.00;99.90;;;;;;5006557;27;20214;-70
2023/09/17 02:21:16;;;;;;;11.27;8.52;;;15.10;99.90;;;;;;5072993;27;20215;-70
2023/09/17 02:24:05;;;;;;;10.10;8.73;;;15.20;99.90;;;;;;5013124;28;20371;-71
2023/09/17 02:26:54;;;;;;;12.05;8.85;;;15.40;99.90;;;;;;5027007;28;20218;-70
2023/09/17 02:29:43;;;;;;;11.57;8.00;;;15.10;99.90;;;;;;4997946;28;20310;-70
2023/09/17 02:32:32;;;;;;;11.88;8.73;;;15.10;99.90;;;;;;5001604;28;20229;-70
2023/09/17 02:35:23;;;;;;;10.60;8.25;;;15.10;99.90;;;;;;5049921;28;20234;-69
2023/09/17 02:38:12;;;;;;;10.75;7.93;;;15.10;99.90;;;;;;5017381;27;20233;-69
2023/09/17 02:41:03;;;;;;;13.77;8.95;;;15.20;99.90;;;;;;5046387;27;20282;-71
2023/09/17 02:43:52;;;;;;;9.88;8.55;;;15.00;99.90;;;;;;5012949;28;20225;-71
2023/09/17 02:46:42;;;;;;;11.93;8.52;;;15.00;99.90;;;;;;5032610;27;22107;-70
2023/09/17 02:49:31;;;;;;;12.75;9.70;;;15.10;99.90;;;;;;5084029;27;20230;-72
2023/09/17 02:52:22;;;;;;;11.15;8.50;;;15.00;99.90;;;;;;5008931;28;20230;-71
2023/09/17 02:55:10;;;;;;;12.57;8.93;;;15.00;99.90;;;;;;5041740;27;20320;-72
2023/09/17 02:58:01;;;;;;;11.90;9.10;;;14.90;99.90;;;;;;5035378;28;20240;-68
2023/09/17 03:00:50;;;;;;;12.18;9.07;;;14.90;99.90;;;;;;4996621;28;20218;-69
2023/09/17 03:03:40;;;;;;;13.48;9.05;;;14.90;99.90;;;;;;5020033;27;20218;-70
2023/09/17 03:06:30;;;;;;;12.52;8.93;;;14.90;99.90;;;;;;4997491;28;20217;-70
2023/09/17 03:09:20;;;;;;;11.23;8.88;;;15.00;99.90;;;;;;5023059;27;20226;-71
2023/09/17 03:12:11;;;;;;;14.35;8.82;;;14.90;99.90;;;;;;5006414;27;20245;-70
2023/09/17 03:15:02;;;;;;;10.43;8.63;;;15.00;99.90;;;;;;5093560;27;20217;-70
2023/09/17 03:17:50;;;;;;;12.48;9.27;;;15.00;99.90;;;;;;5002580;27;20264;-70
2023/09/17 03:20:43;;;;;;;12.20;8.65;;;15.00;99.90;;;;;;5007714;27;20241;-72
2023/09/17 03:23:32;;;;;;;10.82;9.32;;;14.90;99.90;;;;;;5026417;27;20306;-70
2023/09/17 03:26:24;;;;;;;12.60;8.98;;;14.80;99.90;;;;;;5000570;28;20236;-70
2023/09/17 03:29:13;;;;;;;15.60;10.23;;;14.90;99.90;;;;;;4994871;28;20249;-70
2023/09/17 03:32:03;;;;;;;11.27;9.13;;;14.80;99.90;;;;;;5083285;27;20256;-71
2023/09/17 03:34:52;;;;;;;13.80;10.10;;;14.70;99.90;;;;;;5049665;27;20219;-71
2023/09/17 03:37:41;;;;;;;12.27;8.98;;;14.60;99.90;;;;;;5008538;28;20313;-71
2023/09/17 03:40:30;;;;;;;13.57;9.77;;;14.80;99.90;;;;;;5014189;27;20259;-71
2023/09/17 03:43:20;;;;;;;11.98;8.73;;;14.70;99.90;;;;;;5009323;27;20575;-70
2023/09/17 03:46:09;;;;;;;12.05;9.00;;;14.70;99.90;;;;;;5032001;27;20232;-71
2023/09/17 03:48:58;;;;;;;15.38;9.93;;;14.80;99.90;;;;;;5009509;28;20222;-70
2023/09/17 03:51:47;;;;;;;13.52;9.32;;;14.70;99.90;;;;;;5080137;27;20225;-71
2023/09/17 03:54:36;;;;;;;13.25;9.48;;;14.80;99.90;;;;;;5056808;28;20226;-70
2023/09/17 03:57:27;;;;;;;15.23;9.10;;;14.70;99.90;;;;;;5012988;28;20234;-70
2023/09/17 04:00:20;;;;;;;12.40;9.60;;;14.70;99.90;;;;;;5095633;27;20221;-72
2023/09/17 04:03:12;;;;;;;11.82;9.27;;;14.80;99.90;;;;;;5004325;28;21393;-70
2023/09/17 04:06:03;;;;;;;14.65;9.27;;;14.80;99.90;;;;;;5001842;28;20599;-71
2023/09/17 04:08:52;;;;;;;14.55;9.70;;;14.80;99.90;;;;;;5010973;27;20226;-70
2023/09/17 04:11:41;;;;;;;13.05;9.50;;;14.90;99.90;;;;;;5009475;27;20825;-70
2023/09/17 04:14:32;;;;;;;12.05;9.68;;;14.70;99.90;;;;;;5000416;28;20231;-69
2023/09/17 04:17:25;;;;;;;11.68;9.02;;;14.70;99.90;;;;;;5076628;27;20705;-69
2023/09/17 04:20:18;;;;;;;15.88;10.38;;;14.80;99.90;;;;;;5010906;27;20233;-68
2023/09/17 04:23:07;;;;;;;12.13;9.18;;;14.70;99.90;;;;;;4992696;28;20233;-69
2023/09/17 04:25:56;;;;;;;10.63;9.50;;;14.70;99.90;;;;;;5014614;28;20225;-71
2023/09/17 04:28:46;;;;;;;15.25;10.32;;;14.60;99.90;;;;;;5035934;27;20221;-69
2023/09/17 04:31:35;;;;;;;14.30;10.27;;;14.50;99.90;;;;;;4999668;27;20229;-70
2023/09/17 04:34:25;;;;;;;14.40;9.60;;;14.30;99.90;;;;;;5003649;28;20759;-69
2023/09/17 04:37:19;;;;;;;13.35;9.80;;;14.40;99.90;;;;;;5025363;27;20225;-72
2023/09/17 04:40:11;;;;;;;11.82;9.30;;;14.50;99.90;;;;;;5006404;28;20221;-71
2023/09/17 04:43:03;;;;;;;11.88;9.13;;;14.60;99.90;;;;;;5019292;28;20277;-71
2023/09/17 04:45:53;;;;;;;12.60;9.57;;;14.60;99.90;;;;;;5007555;28;20226;-71
2023/09/17 04:48:52;;;;;;;12.48;10.20;;;14.60;99.90;;;;;;5092698;27;20221;-72
2023/09/17 04:51:42;;;;;;;13.48;10.23;;;14.60;99.90;;;;;;5005123;28;20217;-71
2023/09/17 04:54:31;;;;;;;13.00;9.07;;;14.80;99.90;;;;;;5001850;28;20226;-71
2023/09/17 04:57:20;;;;;;;12.80;9.57;;;14.80;99.90;;;;;;5014786;27;20290;-71
2023/09/17 05:00:11;;;;;;;12.55;9.68;;;14.80;99.90;;;;;;5012977;28;20641;-72
2023/09/17 05:03:01;;;;;;;12.40;10.40;;;14.80;99.90;;;;;;5001751;28;20234;-72
2023/09/17 05:05:51;;;;;;;12.38;10.27;;;14.90;99.90;;;;;;5006261;28;20279;-71
2023/09/17 05:08:42;;;;;;;12.23;9.70;;;14.90;99.90;;;;;;5083350;27;20255;-70
2023/09/17 05:11:31;;;;;;;14.35;10.15;;;15.00;99.90;;;;;;5008033;28;20218;-71
2023/09/17 05:14:20;;;;;;;13.32;10.95;;;15.10;99.90;;;;;;4993875;28;20222;-70
2023/09/17 05:17:10;;;;;;;14.63;10.35;;;14.90;99.90;;;;;;4999562;28;20230;-70
2023/09/17 05:19:59;;;;;;;11.93;9.90;;;15.10;99.90;;;;;;5006920;27;20839;-70
2023/09/17 05:22:48;;;;;;;13.40;10.25;;;15.30;99.90;;;;;;4998246;28;20226;-69
2023/09/17 05:25:39;;;;;;;12.00;10.20;;;15.40;99.90;;;;;;5077169;27;20226;-69
2023/09/17 05:28:29;;;;;;;14.18;10.55;;;15.30;99.90;;;;;;5006843;28;20218;-71
2023/09/17 05:31:19;;;;;;;14.05;10.27;;;15.40;99.90;;;;;;5002198;28;21364;-70
2023/09/17 05:34:08;;;;;;;13.50;10.60;;;15.50;99.90;;;;;;5013249;27;20226;-69
2023/09/17 05:36:57;;;;;;;12.70;10.27;;;15.60;99.90;;;;;;4999419;28;20262;-70
2023/09/17 05:40:01;;;;;;;14.05;11.10;;;15.60;99.90;;;;;;5003985;27;20716;-69
2023/09/17 05:42:52;;;;;;;13.27;10.07;;;15.60;99.90;;;;;;5008411;28;20236;-68
2023/09/17 05:45:41;;;;;;;16.55;10.75;;;15.60;99.90;;;;;;5005862;28;20334;-71
2023/09/17 05:48:30;;;;;;;13.55;10.85;;;15.80;99.90;;;;;;5078847;27;20222;-70
2023/09/17 05:51:19;;;;;;;13.75;10.85;;;15.70;99.90;;;;;;4993338;28;20275;-70
2023/09/17 05:54:08;;;;;;;14.35;10.93;;;15.70;99.90;;;;;;4999287;28;20218;-71
2023/09/17 05:56:57;;;;;;;13.25;10.65;;;15.70;99.90;;;;;;5004832;28;20218;-71
2023/09/17 05:59:48;;;;;;;14.40;11.18;;;15.90;99.90;;;;;;4997873;28;20928;-69
2023/09/17 06:02:37;;;;;;;14.30;10.88;;;16.00;99.90;;;;;;5011672;27;20222;-69
2023/09/17 06:05:26;;;;;;;14.18;11.07;;;16.10;99.90;;;;;;4985982;28;20676;-70
2023/09/17 06:08:14;;;;;;;14.38;11.98;;;16.20;99.90;;;;;;5007694;28;20222;-70
2023/09/17 06:11:03;;;;;;;16.75;10.50;;;16.10;99.90;;;;;;5029455;27;20367;-69
2023/09/17 06:13:52;;;;;;;13.43;10.65;;;16.10;99.90;;;;;;5035046;28;20229;-68
2023/09/17 06:16:43;;;;;;;14.30;10.93;;;16.10;99.90;;;;;;4996246;28;20726;-67
2023/09/17 06:19:45;;;;;;;15.75;11.05;;;16.30;99.90;;;;;;5067648;27;20221;-70
2023/09/17 06:22:35;;;;;;;16.33;11.75;;;16.30;99.90;;;;;;5069001;27;20251;-69
2023/09/17 06:25:24;;;;;;;14.88;11.27;;;16.20;99.90;;;;;;5008976;27;20772;-71
2023/09/17 06:28:14;;;;;;;15.30;10.98;;;16.30;99.90;;;;;;4991952;28;20595;-69
2023/09/17 06:31:03;;;;;;;13.32;10.90;;;16.40;99.90;;;;;;4989644;28;20257;-71
2023/09/17 06:33:54;;;;;;;17.60;11.15;;;16.50;99.90;;;;;;4989923;28;20233;-71
2023/09/17 06:36:43;;;;;;;16.13;11.65;;;16.60;99.90;;;;;;5007374;28;20705;-70
2023/09/17 06:39:32;;;;;;;15.00;11.23;;;16.70;99.90;;;;;;4999370;28;20323;-69
2023/09/17 06:42:24;;;;;;;15.52;11.63;;;16.70;99.90;;;;;;5021577;27;20229;-69
2023/09/17 06:45:13;;;;;;;19.00;11.65;;;16.60;99.90;;;;;;5025924;28;20222;-70
2023/09/17 06:48:01;;;;;;;15.40;11.55;;;16.60;99.90;;;;;;4989357;28;20229;-69
2023/09/17 06:50:53;;;;;;;12.50;10.90;;;16.70;99.90;;;;;;5009422;28;20222;-69
2023/09/17 06:53:42;;;;;;;14.98;10.77;;;16.70;99.90;;;;;;5005061;28;20234;-70
2023/09/17 06:56:31;;;;;;;15.18;11.30;;;16.90;99.90;;;;;;4999289;28;20218;-70
2023/09/17 06:59:20;;;;;;;14.35;10.65;;;17.00;99.90;;;;;;5059765;28;20230;-68
2023/09/17 07:02:11;;;;;;;13.38;10.68;;;17.10;99.90;;;;;;5002273;28;20354;-70
2023/09/17 07:05:03;;;;;;;16.48;11.40;;;17.10;99.90;;;;;;4993275;27;20297;-69
2023/09/17 07:07:55;;;;;;;13.00;10.77;;;17.00;99.90;;;;;;5092960;27;20327;-70
2023/09/17 07:10:45;;;;;;;13.50;10.95;;;17.10;99.90;;;;;;5064205;28;20371;-71
2023/09/17 07:13:34;;;;;;;13.45;10.98;;;17.10;99.90;;;;;;5071768;27;20219;-72
2023/09/17 07:16:24;;;;;;;15.88;10.10;;;17.30;99.90;;;;;;5005134;27;20226;-71
2023/09/17 07:19:14;;;;;;;12.25;9.98;;;17.20;99.90;;;;;;5014600;28;20312;-72
2023/09/17 07:22:10;;;;;;;15.88;10.73;;;17.40;99.90;;;;;;5055372;27;20919;-70
2023/09/17 07:25:04;;;;;;;14.73;11.20;;;17.50;99.90;;;;;;5077285;27;20225;-68
2023/09/17 07:27:53;;;;;;;11.90;10.00;;;17.60;99.90;;;;;;5000279;27;20328;-68
2023/09/17 07:30:41;;;;;;;14.38;10.63;;;17.90;99.90;;;;;;5015676;27;20643;-74
2023/09/17 07:33:30;;;;;;;15.55;11.00;;;18.20;99.90;;;;;;5012605;28;20402;-74
2023/09/17 07:36:19;;;;;;;14.90;9.98;;;18.30;99.90;;;;;;4998674;28;20229;-73
2023/09/17 07:39:11;;;;;;;14.20;10.50;;;18.80;99.90;;;;;;4994917;28;20224;-74
2023/09/17 07:42:02;;;;;;;12.40;9.98;;;18.90;99.90;;;;;;5009045;27;20240;-73
2023/09/17 07:44:51;;;;;;;13.43;10.60;;;19.20;99.90;;;;;;4995436;28;20318;-69
2023/09/17 07:47:40;;;;;;;11.27;10.07;;;19.60;99.90;;;;;;5002295;28;20225;-70
2023/09/17 07:50:29;;;;;;;13.15;9.57;;;19.80;99.90;;;;;;5011388;28;20243;-70
2023/09/17 07:53:19;;;;;;;14.90;10.18;;;20.10;99.90;;;;;;5100279;27;20219;-68
2023/09/17 07:56:10;;;;;;;11.57;9.35;;;20.30;99.90;;;;;;5000694;28;20222;-69
2023/09/17 07:59:00;;;;;;;11.10;9.90;;;20.50;99.90;;;;;;5080347;27;20233;-71
2023/09/17 08:01:51;;;;;;;12.73;9.02;;;20.50;99.90;;;;;;5006750;28;20226;-71
2023/09/17 08:04:40;;;;;;;13.05;9.98;;;20.70;99.90;;;;;;4999394;28;20253;-70
2023/09/17 08:07:29;;;;;;;13.20;10.35;;;20.90;99.90;;;;;;4999424;28;20347;-71
2023/09/17 08:10:18;;;;;;;13.60;10.68;;;21.10;99.90;;;;;;5016515;27;20978;-74
2023/09/17 08:13:08;;;;;;;11.60;10.20;;;21.50;99.90;;;;;;5001551;28;20309;-73
2023/09/17 08:16:01;;;;;;;12.00;9.40;;;22.00;99.90;;;;;;5019320;27;20811;-72
2023/09/17 08:18:50;;;;;;;15.10;9.63;;;21.90;99.90;;;;;;5004853;27;20225;-73
2023/09/17 08:21:39;;;;;;;11.75;9.63;;;22.40;99.90;;;;;;5014917;28;20346;-72
2023/09/17 08:24:28;;;;;;;14.20;10.05;;;22.80;99.90;;;;;;5068159;27;20649;-72
2023/09/17 08:27:19;;;;;;;18.05;10.05;;;23.30;99.90;;;;;;5066021;28;20372;-75
2023/09/17 08:30:10;;;;;;;10.85;8.95;;;23.30;99.90;;;;;;5012984;27;20258;-74
2023/09/17 08:33:01;;;;;;;11.73;9.77;;;23.60;99.90;;;;;;5081331;27;20257;-75
2023/09/17 08:35:50;;;;;;;13.05;8.88;;;23.80;99.90;;;;;;5008882;27;20236;-76
2023/09/17 08:38:39;;;;;;;12.32;9.05;;;24.10;99.90;;;;;;4997978;28;20249;-76
2023/09/17 08:41:28;;;;;;;12.25;9.20;;;24.50;99.90;;;;;;5001188;27;20229;-76
2023/09/17 08:44:18;;;;;;;12.18;8.85;;;24.50;99.90;;;;;;5017279;28;20232;-76
2023/09/17 08:47:07;;;;;;;13.52;8.95;;;24.90;99.90;;;;;;5003775;28;20225;-75
2023/09/17 08:49:57;;;;;;;10.90;8.65;;;25.40;99.90;;;;;;5017560;27;20221;-75
2023/09/17 08:52:54;;;;;;;11.15;8.85;;;25.60;99.90;;;;;;5012541;28;20298;-75
2023/09/17 08:55:44;;;;;;;10.85;8.77;;;25.90;99.90;;;;;;5086947;27;21313;-75
2023/09/17 08:58:40;;;;;;;11.73;9.13;;;26.10;99.90;;;;;;5014364;27;20230;-75
2023/09/17 09:01:29;;;;;;;10.90;8.55;;;26.20;99.90;;;;;;5035254;27;20222;-74
2023/09/17 09:04:19;;;;;;;9.95;8.95;;;26.30;99.90;;;;;;5013722;28;20225;-75
2023/09/17 09:07:11;;;;;;;11.27;8.90;;;25.90;99.90;;;;;;5076500;27;20310;-75
2023/09/17 09:10:02;;;;;;;10.07;8.75;;;25.00;99.90;;;;;;5009712;28;20218;-76
2023/09/17 09:12:51;;;;;;;9.55;8.23;;;24.20;99.90;;;;;;5067569;27;20355;-74
2023/09/17 09:15:41;;;;;;;10.77;8.90;;;23.40;99.90;;;;;;4996854;28;20335;-74
2023/09/17 09:18:30;;;;;;;15.73;9.15;;;22.80;99.90;;;;;;5088951;27;20232;-74
2023/09/17 09:21:19;;;;;;;11.50;8.60;;;22.40;99.90;;;;;;5024064;27;20622;-75
2023/09/17 09:24:10;;;;;;;11.82;8.65;;;22.20;99.90;;;;;;5003355;28;20357;-74
2023/09/17 09:26:59;;;;;;;11.15;8.52;;;22.30;99.90;;;;;;5006255;27;20775;-74
2023/09/17 09:29:48;;;;;;;11.63;8.27;;;22.30;99.90;;;;;;5013206;27;20255;-74
2023/09/17 09:32:38;;;;;;;10.32;8.85;;;22.30;99.90;;;;;;5018808;27;20222;-74
2023/09/17 09:35:27;;;;;;;11.50;8.70;;;22.10;99.90;;;;;;5001948;27;20351;-74
2023/09/17 09:38:18;;;;;;;11.50;8.75;;;21.80;99.90;;;;;;4998659;28;20230;-75
2023/09/17 09:41:09;;;;;;;9.63;8.60;;;21.80;99.90;;;;;;5020297;28;20222;-75
2023/09/17 09:44:01;;;;;;;12.25;9.55;;;21.90;99.90;;;;;;5002187;28;20230;-74
2023/09/17 09:46:57;;;;;;;10.77;9.07;;;21.80;99.90;;;;;;5006925;28;20316;-74
2023/09/17 09:49:46;;;;;;;10.00;8.55;;;21.70;99.90;;;;;;5085978;27;20217;-73
2023/09/17 09:52:35;;;;;;;10.95;8.48;;;21.90;99.90;;;;;;5069439;28;20366;-74
2023/09/17 09:55:27;;;;;;;11.32;7.90;;;22.00;99.90;;;;;;5004432;27;20220;-75
2023/09/17 09:58:19;;;;;;;10.80;8.60;;;22.00;99.90;;;;;;4994962;28;20700;-75
2023/09/17 10:01:09;;;;;;;10.70;8.43;;;22.00;99.90;;;;;;4998520;28;20271;-75
2023/09/17 10:03:58;;;;;;;10.93;8.13;;;22.00;99.90;;;;;;4997248;28;20236;-75
2023/09/17 10:06:48;;;;;;;8.82;7.93;;;22.10;99.90;;;;;;5043160;27;20226;-75
2023/09/17 10:09:37;;;;;;;10.95;8.98;;;22.00;99.90;;;;;;5021213;27;20232;-76
2023/09/17 10:12:27;;;;;;;11.45;8.52;;;22.00;99.90;;;;;;5015153;28;20262;-76
2023/09/17 10:15:18;;;;;;;11.27;8.82;;;22.00;99.90;;;;;;5002315;28;20551;-75
2023/09/17 10:18:12;;;;;;;9.32;8.27;;;21.90;99.90;;;;;;4996718;28;20355;-75
2023/09/17 10:21:02;;;;;;;9.73;8.23;;;22.00;99.90;;;;;;4988241;28;20861;-75
2023/09/17 10:23:52;;;;;;;11.63;8.75;;;22.00;99.90;;;;;;5001710;28;20261;-76
2023/09/17 10:26:43;;;;;;;9.73;8.13;;;22.10;99.90;;;;;;5006729;28;20236;-75
2023/09/17 10:29:35;;;;;;;9.13;7.72;;;22.00;99.90;;;;;;4996026;28;20222;-75
2023/09/17 10:32:26;;;;;;;10.13;8.05;;;22.10;99.90;;;;;;5010528;28;20261;-77
2023/09/17 10:35:16;;;;;;;9.02;7.80;;;22.20;99.90;;;;;;4994452;28;20225;-76
2023/09/17 10:38:08;;;;;;;9.82;7.70;;;22.30;99.90;;;;;;5010365;28;20222;-76
2023/09/17 10:40:58;;;;;;;9.68;8.10;;;22.30;99.90;;;;;;5009286;28;20229;-76
2023/09/17 10:43:48;;;;;;;8.43;7.53;;;22.40;99.90;;;;;;5020353;28;20298;-75
2023/09/17 10:46:42;;;;;;;10.40;7.57;;;22.40;99.90;;;;;;5006479;28;20219;-73
2023/09/17 10:49:36;;;;;;;8.52;7.68;;;22.50;99.90;;;;;;4999512;28;20266;-75
2023/09/17 10:52:26;;;;;;;9.38;8.13;;;22.50;99.90;;;;;;5073276;28;20217;-75
2023/09/17 10:55:16;;;;;;;12.50;7.53;;;22.60;99.90;;;;;;5075957;28;20223;-75
2023/09/17 10:58:12;;;;;;;9.93;7.47;;;22.60;99.90;;;;;;4994524;28;20232;-76
2023/09/17 11:01:02;;;;;;;8.75;7.78;;;22.50;99.90;;;;;;5007441;28;20230;-75
2023/09/17 11:03:58;;;;;;;8.38;7.47;;;22.60;99.90;;;;;;5078572;27;20237;-76
2023/09/17 11:06:50;;;;;;;8.40;7.50;;;22.70;99.90;;;;;;5023109;27;20278;-76
2023/09/17 11:09:39;;;;;;;8.57;7.68;;;22.70;99.90;;;;;;4995410;28;20217;-76
2023/09/17 11:12:29;;;;;;;9.50;8.02;;;22.70;99.90;;;;;;5014506;28;20552;-76
2023/09/17 11:15:19;;;;;;;9.48;8.10;;;22.60;99.90;;;;;;5012086;28;20233;-76
2023/09/17 11:18:08;;;;;;;8.98;7.88;;;22.50;99.90;;;;;;5103063;27;20216;-76
2023/09/17 11:21:04;;;;;;;9.18;7.38;;;22.50;99.90;;;;;;5011359;28;20223;-75
2023/09/17 11:23:56;;;;;;;8.68;7.60;;;22.70;99.90;;;;;;4997656;28;20225;-74
2023/09/17 11:26:46;;;;;;;8.98;7.57;;;22.70;99.90;;;;;;5008064;27;20296;-76
2023/09/17 11:29:39;;;;;;;8.43;7.43;;;22.80;99.90;;;;;;4991666;28;20306;-76
2023/09/17 11:32:28;;;;;;;10.93;7.35;;;22.80;99.90;;;;;;5015201;28;20221;-76
2023/09/17 11:35:23;;;;;;;8.05;7.05;;;22.80;99.90;;;;;;5004648;28;20295;-73
2023/09/17 11:38:13;;;;;;;8.00;7.03;;;22.90;99.90;;;;;;5013149;27;20222;-72
2023/09/17 11:41:08;;;;;;;9.05;7.05;;;22.90;99.90;;;;;;5000115;28;20354;-72
2023/09/17 11:43:58;;;;;;;8.85;7.80;;;22.80;99.90;;;;;;5074329;27;20222;-72
2023/09/17 11:46:47;;;;;;;8.73;7.22;;;22.90;99.90;;;;;;5012021;28;20245;-72
2023/09/17 11:49:36;;;;;;;8.68;7.25;;;22.90;99.90;;;;;;5003753;28;20230;-73
2023/09/17 11:52:27;;;;;;;13.77;6.80;;;22.90;99.90;;;;;;5012595;28;20237;-73
2023/09/17 11:55:24;;;;;;;8.13;6.63;;;23.00;99.90;;;;;;5018153;27;20217;-73
2023/09/17 11:58:19;;;;;;;8.35;7.15;;;22.90;99.90;;;;;;4995135;28;20226;-72
2023/09/17 12:01:08;;;;;;;9.25;7.80;;;22.90;99.90;;;;;;5013175;27;20301;-74
2023/09/17 12:03:58;;;;;;;7.68;6.88;;;23.00;99.90;;;;;;5078470;27;20295;-73
2023/09/17 12:06:49;;;;;;;8.48;7.25;;;23.10;99.90;;;;;;5004146;28;20234;-72
2023/09/17 12:09:48;;;;;;;8.55;6.78;;;23.00;99.90;;;;;;4999671;27;20358;-75
2023/09/17 12:12:38;;;;;;;8.73;6.65;;;23.00;99.90;;;;;;5008538;27;20232;-73
2023/09/17 12:15:32;;;;;;;8.98;7.32;;;23.00;99.90;;;;;;4995284;28;20235;-75
2023/09/17 12:18:21;;;;;;;8.15;7.22;;;22.90;99.90;;;;;;5006494;28;20237;-72
2023/09/17 12:21:10;;;;;;;8.32;6.78;;;22.90;99.90;;;;;;5008719;28;20226;-74
2023/09/17 12:24:05;;;;;;;7.38;6.57;;;23.00;99.90;;;;;;5072471;27;20226;-74
2023/09/17 12:27:19;;;;;;;8.38;7.25;;;23.00;99.90;;;;;;5003591;28;20312;-75
2023/09/17 12:30:11;;;;;;;9.32;7.13;;;23.00;99.90;;;;;;5006670;27;20774;-74
2023/09/17 12:33:01;;;;;;;9.32;7.40;;;22.90;99.90;;;;;;5071480;27;20226;-73
2023/09/17 12:35:51;;;;;;;8.63;6.90;;;23.00;99.90;;;;;;5053862;27;20222;-73
2023/09/17 12:38:40;;;;;;;9.45;7.43;;;23.00;99.90;;;;;;5008302;27;20232;-73
2023/09/17 12:41:29;;;;;;;10.75;7.15;;;22.90;99.90;;;;;;5001041;28;20345;-74
2023/09/17 12:44:29;;;;;;;13.10;7.35;;;22.90;99.90;;;;;;5015834;27;20708;-73
2023/09/17 12:47:19;;;;;;;11.13;8.05;;;23.00;99.90;;;;;;4989779;28;20230;-74
2023/09/17 12:50:10;;;;;;;7.78;7.05;;;23.10;99.90;;;;;;5025880;27;20218;-72
2023/09/17 12:52:59;;;;;;;8.18;6.90;;;23.20;99.90;;;;;;5009859;28;20229;-73
2023/09/17 12:55:49;;;;;;;7.53;6.72;;;23.30;99.90;;;;;;5076056;27;20218;-72
2023/09/17 12:58:38;;;;;;;8.32;6.95;;;23.30;99.90;;;;;;5000833;27;20234;-74
2023/09/17 13:01:30;;;;;;;7.47;6.78;;;23.40;99.90;;;;;;5008787;28;20230;-73
2023/09/17 13:04:19;;;;;;;9.77;6.88;;;23.30;99.90;;;;;;5007108;28;20221;-73
2023/09/17 13:07:17;;;;;;;9.50;7.18;;;23.30;99.90;;;;;;5003065;28;20736;-75
2023/09/17 13:10:09;;;;;;;7.47;6.78;;;23.40;99.90;;;;;;5002896;28;20731;-75
2023/09/17 13:12:58;;;;;;;11.07;6.88;;;23.30;99.90;;;;;;5006411;27;20222;-75
2023/09/17 13:15:48;;;;;;;7.68;6.80;;;23.30;99.90;;;;;;5002117;28;20248;-72
2023/09/17 13:18:38;;;;;;;8.85;7.05;;;23.30;99.90;;;;;;5000895;28;20720;-72
2023/09/17 13:21:29;;;;;;;7.93;7.10;;;23.30;99.90;;;;;;5086355;27;20273;-75
2023/09/17 13:24:22;;;;;;;7.45;6.72;;;23.30;99.90;;;;;;4993952;28;20313;-69
2023/09/17 13:27:11;;;;;;;7.38;6.40;;;23.30;99.90;;;;;;4995842;28;20244;-73
2023/09/17 13:30:00;;;;;;;11.68;6.97;;;23.30;99.90;;;;;;5027354;27;20218;-71
2023/09/17 13:32:49;;;;;;;8.98;6.85;;;23.40;99.90;;;;;;4997298;28;20780;-72
2023/09/17 13:35:39;;;;;;;7.75;6.50;;;23.30;99.90;;;;;;5024247;27;20268;-72
2023/09/17 13:38:28;;;;;;;10.57;6.88;;;23.20;99.90;;;;;;5011700;27;20218;-72
2023/09/17 13:41:23;;;;;;;8.38;7.10;;;23.10;99.90;;;;;;5006662;28;20308;-71
2023/09/17 13:44:12;;;;;;;8.80;6.80;;;23.00;99.90;;;;;;5015444;28;20230;-71
2023/09/17 13:47:02;;;;;;;9.43;7.10;;;23.00;99.90;;;;;;5009857;28;20373;-70
2023/09/17 13:49:51;;;;;;;8.82;7.30;;;23.00;99.90;;;;;;5024040;27;20225;-71
2023/09/17 13:52:40;;;;;;;9.35;7.18;;;23.10;99.90;;;;;;5009859;28;21049;-73
2023/09/17 13:55:31;;;;;;;8.02;7.28;;;23.10;99.90;;;;;;4999380;27;20230;-72
2023/09/17 13:58:21;;;;;;;7.70;6.50;;;23.10;99.90;;;;;;5020561;27;20851;-71
2023/09/17 14:01:11;;;;;;;7.95;7.00;;;23.20;99.90;;;;;;4989338;28;20592;-69
2023/09/17 14:04:01;;;;;;;9.27;6.72;;;23.30;99.90;;;;;;5008245;27;21057;-71
2023/09/17 14:06:55;;;;;;;8.98;7.32;;;23.30;99.90;;;;;;5003810;28;20230;-70
2023/09/17 14:09:44;;;;;;;8.30;6.68;;;23.30;99.90;;;;;;5012422;28;20721;-71
2023/09/17 14:12:33;;;;;;;7.70;7.00;;;23.50;99.90;;;;;;5006128;28;20229;-72
2023/09/17 14:15:23;;;;;;;7.22;6.53;;;23.40;99.90;;;;;;5012291;28;20345;-71
2023/09/17 14:18:12;;;;;;;9.15;7.00;;;23.40;99.90;;;;;;5009976;27;20248;-72
2023/09/17 14:21:03;;;;;;;8.55;6.65;;;23.40;99.90;;;;;;5008249;28;20229;-71
2023/09/17 14:23:51;;;;;;;7.65;6.85;;;23.40;99.90;;;;;;5008330;27;20260;-75
2023/09/17 14:26:40;;;;;;;7.28;6.57;;;23.40;99.90;;;;;;5018439;28;20238;-75
2023/09/17 14:29:29;;;;;;;7.05;6.35;;;23.40;99.90;;;;;;5012291;28;20222;-76
2023/09/17 14:32:22;;;;;;;9.05;6.70;;;23.40;99.90;;;;;;5021639;28;20268;-76
2023/09/17 14:35:11;;;;;;;8.82;7.22;;;23.30;99.90;;;;;;4995660;28;20316;-76
2023/09/17 14:38:00;;;;;;;8.35;7.00;;;23.40;99.90;;;;;;5011276;28;20305;-75